Time;durP1;ratioP1;P1;durP2;ratioP2;P2;SDS_P1;SDS_P2;PMS_P1;PMS_P2;Temp;Humidity;BMP_temperature;BMP_pressure;BME280_temperature;BME280_humidity;BME280_pressure;Samples;Min_cycle;Max_cycle;Signal;HPM_P1;HPM_P2
2023/10/07 00:02:33;;;;;;;8.23;3.40;;;;;;;17.12;87.38;101266.25;8310386;28;20084;-63
2023/10/07 00:06:34;;;;;;;8.40;3.40;;;;;;;17.09;87.54;101258.38;8305314;28;20044;-63
2023/10/07 00:10:36;;;;;;;13.00;3.90;;;;;;;17.08;87.64;101262.16;8304357;28;20486;-63
2023/10/07 00:14:37;;;;;;;6.43;3.28;;;;;;;16.96;88.27;101252.53;8298324;28;20034;-63
2023/10/07 00:18:38;;;;;;;8.18;3.25;;;;;;;16.91;88.61;101265.81;8305023;28;20073;-63
2023/10/07 00:22:41;;;;;;;9.15;3.75;;;;;;;16.76;89.59;101265.56;8304758;28;20073;-62
2023/10/07 00:26:43;;;;;;;8.27;3.42;;;;;;;16.65;89.78;101267.72;8305780;28;20094;-63
2023/10/07 00:30:45;;;;;;;11.60;4.15;;;;;;;16.64;90.23;101271.44;8308724;28;20407;-61
2023/10/07 00:34:46;;;;;;;11.88;3.78;;;;;;;16.59;90.46;101273.81;8306698;28;20034;-61
2023/10/07 00:38:47;;;;;;;9.48;4.15;;;;;;;16.72;90.29;101266.03;8308213;28;20495;-61
2023/10/07 00:42:50;;;;;;;17.75;4.47;;;;;;;16.71;90.30;101272.53;8305331;28;20107;-62
2023/10/07 00:47:12;;;;;;;11.85;3.42;;;;;;;16.73;91.02;101278.69;8303651;28;20033;-63
2023/10/07 00:51:16;;;;;;;13.38;4.20;;;;;;;16.71;91.12;101264.34;8305908;28;20051;-65
2023/10/07 00:55:18;;;;;;;8.98;3.90;;;;;;;16.64;91.58;101260.53;8307646;28;20593;-64
2023/10/07 00:59:19;;;;;;;13.02;4.18;;;;;;;16.53;92.55;101263.53;8307381;28;20037;-64
2023/10/07 01:07:41;;;;;;;7.63;3.58;;;;;;;16.41;93.48;101251.16;8341379;27;20998;-62
2023/10/07 01:11:45;;;;;;;10.57;3.88;;;;;;;16.46;93.58;101248.81;8331320;28;20044;-60
2023/10/07 01:15:48;;;;;;;9.05;3.63;;;;;;;16.49;93.67;101243.03;8338838;28;20628;-61
2023/10/07 01:19:52;;;;;;;12.73;4.10;;;;;;;16.55;93.34;101245.09;8331622;28;20033;-60
2023/10/07 01:23:53;;;;;;;7.72;3.47;;;;;;;16.51;93.12;101251.91;8330777;28;20046;-62
2023/10/07 01:27:54;;;;;;;11.55;3.67;;;;;;;16.56;93.31;101233.19;8331204;28;20539;-63
2023/10/07 01:32:31;;;;;;;8.88;3.67;;;;;;;16.58;93.44;101221.09;8330350;28;20053;-62
2023/10/07 01:36:19;;;;;;;9.15;3.80;;;;;;;16.65;93.11;101226.75;8365271;28;20047;-62
2023/10/07 01:40:27;;;;;;;10.93;4.00;;;;;;;16.62;92.90;101222.47;8364088;28;20057;-62
2023/10/07 01:44:31;;;;;;;8.73;3.38;;;;;;;16.53;93.84;101217.13;8364618;28;20117;-62
2023/10/07 01:48:35;;;;;;;11.65;3.67;;;;;;;16.63;93.55;101207.81;8363513;28;20041;-62
2023/10/07 01:52:36;;;;;;;5.75;3.13;;;;;;;16.76;93.20;101219.13;8364824;28;20071;-63
2023/10/07 01:56:38;;;;;;;5.22;3.33;;;;;;;16.75;93.33;101222.03;8376223;27;20028;-63
2023/10/07 02:00:44;;;;;;;9.90;3.75;;;;;;;16.67;94.22;101214.66;8372576;27;20568;-63
2023/10/07 02:04:46;;;;;;;18.90;3.92;;;;;;;16.68;94.23;101199.13;8378649;27;20263;-63
2023/10/07 02:08:47;;;;;;;12.60;4.20;;;;;;;16.78;94.16;101197.13;8375984;27;20128;-65
2023/10/07 02:12:47;;;;;;;8.73;3.63;;;;;;;16.76;93.78;101193.69;8373276;27;20113;-61
2023/10/07 02:16:49;;;;;;;13.93;3.95;;;;;;;16.69;94.08;101189.91;8363863;27;20044;-60
2023/10/07 02:20:53;;;;;;;10.13;3.53;;;;;;;16.61;94.38;101206.25;8344191;28;20048;-61
2023/10/07 02:25:03;;;;;;;8.20;3.40;;;;;;;16.57;94.93;101226.72;8352041;28;20045;-62
2023/10/07 02:29:06;;;;;;;11.63;4.07;;;;;;;16.54;95.46;101230.63;8354680;28;20169;-62
2023/10/07 02:33:08;;;;;;;11.23;4.45;;;;;;;16.55;96.38;101245.09;8347351;28;20061;-63
2023/10/07 02:37:12;;;;;;;13.35;4.82;;;;;;;16.57;96.66;101240.34;8342774;28;20124;-63
2023/10/07 02:41:17;;;;;;;8.60;4.88;;;;;;;16.65;96.66;101237.69;8338149;28;20086;-64
2023/10/07 02:49:31;;;;;;;11.57;4.60;;;;;;;16.67;97.07;101241.09;8272095;28;20384;-63
2023/10/07 02:53:35;;;;;;;11.73;4.50;;;;;;;16.62;97.68;101238.00;8259031;28;20046;-63
2023/10/07 02:57:39;;;;;;;9.75;4.97;;;;;;;16.58;98.60;101248.38;8261591;28;20068;-63
2023/10/07 03:01:39;;;;;;;13.70;5.38;;;;;;;16.63;98.82;101228.78;8257973;28;20456;-64
2023/10/07 03:05:58;;;;;;;12.73;5.00;;;;;;;16.67;98.94;101224.72;8265092;28;20060;-63
2023/10/07 03:10:16;;;;;;;12.07;5.03;;;;;;;16.69;99.09;101234.47;8282961;28;20456;-60
2023/10/07 03:14:25;;;;;;;15.75;5.38;;;;;;;16.75;99.44;101222.03;8279556;28;20034;-61
2023/10/07 03:18:30;;;;;;;9.50;4.70;;;;;;;16.81;99.46;101221.38;8279802;28;20516;-60
2023/10/07 03:22:41;;;;;;;15.98;6.07;;;;;;;16.88;98.82;101225.16;8278935;28;20077;-62
2023/10/07 03:26:45;;;;;;;11.07;5.60;;;;;;;16.92;99.56;101223.78;8279752;28;20030;-62
2023/10/07 03:30:51;;;;;;;13.30;5.43;;;;;;;16.99;99.07;101231.19;8278321;28;20049;-63
2023/10/07 03:34:51;;;;;;;14.20;4.82;;;;;;;16.99;98.79;101235.81;8282229;28;20034;-60
2023/10/07 03:39:00;;;;;;;11.60;5.30;;;;;;;16.96;99.78;101241.59;8282366;28;20026;-60
2023/10/07 03:43:00;;;;;;;20.13;5.68;;;;;;;17.02;99.98;101241.78;8276340;28;20042;-62
2023/10/07 03:47:00;;;;;;;15.27;5.55;;;;;;;17.04;99.76;101222.50;8277017;28;20093;-63
2023/10/07 03:51:09;;;;;;;9.48;5.55;;;;;;;17.12;99.62;101231.59;8276761;28;20040;-63
2023/10/07 03:55:14;;;;;;;16.40;5.40;;;;;;;17.18;99.60;101220.00;8277044;28;20041;-62
2023/10/07 03:59:15;;;;;;;13.85;5.10;;;;;;;17.20;99.47;101230.78;8262448;28;20118;-62
2023/10/07 04:03:15;;;;;;;12.75;5.43;;;;;;;17.23;99.47;101238.63;8259312;28;20117;-61
2023/10/07 04:07:16;;;;;;;15.48;5.65;;;;;;;17.33;98.49;101231.16;8259166;28;20133;-61
2023/10/07 04:11:16;;;;;;;10.35;5.03;;;;;;;17.35;98.24;101224.47;8257701;28;20104;-61
2023/10/07 04:15:18;;;;;;;16.02;4.57;;;;;;;17.38;98.37;101220.53;8259892;28;20117;-61
2023/10/07 04:23:31;;;;;;;15.90;5.18;;;;;;;17.40;98.15;101218.50;8298776;28;20946;-61
2023/10/07 04:27:32;;;;;;;14.32;5.10;;;;;;;17.46;97.98;101223.34;8268009;28;20436;-61
2023/10/07 04:31:37;;;;;;;14.48;5.60;;;;;;;17.48;97.97;101215.84;8297763;28;20042;-61
2023/10/07 04:35:39;;;;;;;12.90;4.63;;;;;;;17.43;98.49;101201.81;8301224;28;20376;-61
2023/10/07 04:43:59;;;;;;;11.15;4.70;;;;;;;17.39;99.83;101214.06;8331827;27;20958;-60
2023/10/07 04:48:23;;;;;;;12.18;4.50;;;;;;;17.40;99.46;101223.97;8333734;28;20426;-61
2023/10/07 04:52:24;;;;;;;14.40;5.18;;;;;;;17.44;99.25;101218.03;8334180;28;20048;-60
2023/10/07 04:56:25;;;;;;;14.00;5.75;;;;;;;17.51;99.16;101210.03;8332319;28;20238;-61
2023/10/07 05:00:35;;;;;;;16.90;5.70;;;;;;;17.54;99.22;101221.47;8334493;28;20048;-61
2023/10/07 05:04:36;;;;;;;15.32;5.47;;;;;;;17.53;98.96;101203.38;8331495;28;20120;-63
2023/10/07 05:08:39;;;;;;;12.73;4.95;;;;;;;17.55;98.92;101211.41;8348379;28;20360;-63
2023/10/07 05:12:39;;;;;;;13.32;4.63;;;;;;;17.60;98.85;101214.50;8331068;28;20099;-64
2023/10/07 05:16:40;;;;;;;10.27;4.47;;;;;;;17.55;99.13;101200.47;8333900;28;20037;-63
2023/10/07 05:20:41;;;;;;;14.68;4.47;;;;;;;17.55;99.35;101181.31;8335089;28;20037;-63
2023/10/07 05:24:46;;;;;;;9.60;3.70;;;;;;;17.54;99.57;101193.28;8330926;28;20135;-61
2023/10/07 05:28:47;;;;;;;12.20;4.57;;;;;;;17.48;100.00;101193.97;8329440;28;20065;-61
2023/10/07 05:32:47;;;;;;;12.00;5.20;;;;;;;17.45;100.00;101184.19;8336520;28;20049;-61
2023/10/07 05:36:48;;;;;;;11.02;4.80;;;;;;;17.43;100.00;101186.25;8328547;28;20049;-63
2023/10/07 05:40:48;;;;;;;11.55;4.60;;;;;;;17.37;100.00;101191.50;8338064;28;20518;-63
2023/10/07 05:44:48;;;;;;;13.00;4.63;;;;;;;17.25;100.00;101196.44;8333649;28;20551;-65
2023/10/07 05:48:51;;;;;;;7.20;4.28;;;;;;;17.21;100.00;101192.34;8335450;28;21106;-64
2023/10/07 05:52:51;;;;;;;15.60;4.18;;;;;;;17.25;100.00;101203.78;8332348;28;20037;-64
2023/10/07 05:56:53;;;;;;;12.60;4.65;;;;;;;17.31;100.00;101209.44;8317339;28;20030;-65
2023/10/07 06:00:53;;;;;;;11.75;5.13;;;;;;;17.25;100.00;101203.78;8315014;28;20037;-65
2023/10/07 06:04:53;;;;;;;9.02;4.43;;;;;;;17.28;100.00;101208.91;8304901;28;20048;-64
2023/10/07 06:08:54;;;;;;;8.85;4.22;;;;;;;17.35;100.00;101220.88;8300320;28;20038;-63
2023/10/07 06:12:54;;;;;;;10.82;4.60;;;;;;;17.29;100.00;101227.88;8302875;28;20099;-61
2023/10/07 06:16:55;;;;;;;9.50;4.13;;;;;;;17.18;100.00;101219.13;8305942;28;20042;-62
2023/10/07 06:21:01;;;;;;;13.07;4.30;;;;;;;17.25;100.00;101231.09;8303953;28;20051;-62
2023/10/07 06:25:07;;;;;;;13.05;4.75;;;;;;;17.43;100.00;101229.16;8304570;28;20120;-63
2023/10/07 06:29:18;;;;;;;9.07;4.43;;;;;;;17.63;100.00;101236.03;8310576;28;20049;-63
2023/10/07 06:33:19;;;;;;;10.18;3.65;;;;;;;17.75;100.00;101245.59;8311574;28;20072;-63
2023/10/07 06:37:35;;;;;;;12.07;3.47;;;;;;;18.04;99.03;101239.63;8303920;28;20052;-63
2023/10/07 06:41:35;;;;;;;9.48;3.72;;;;;;;18.23;96.46;101251.09;8307795;28;20800;-63
2023/10/07 06:45:36;;;;;;;11.48;3.78;;;;;;;18.29;95.91;101253.16;8288815;28;20455;-60
2023/10/07 06:49:39;;;;;;;8.75;3.50;;;;;;;18.27;95.91;101252.44;8297552;28;20065;-59
2023/10/07 06:53:42;;;;;;;6.03;3.10;;;;;;;18.28;96.03;101259.66;8306742;28;20499;-60
2023/10/07 06:57:47;;;;;;;8.77;3.50;;;;;;;18.33;95.32;101264.63;8314505;28;20044;-60
2023/10/07 07:01:51;;;;;;;;;;;;;;;18.39;95.34;101262.06;8313007;28;20423;-60
2023/10/07 07:05:52;;;;;;;;;;;;;;;18.42;94.87;101261.72;8310104;28;19921;-61
2023/10/07 07:09:58;;;;;;;11.23;4.00;;;;;;;18.44;94.51;101267.88;8307281;28;20391;-61
2023/10/07 07:13:59;;;;;;;12.32;3.92;;;;;;;18.51;94.04;101265.31;8306933;28;20045;-63
2023/10/07 07:18:29;;;;;;;10.50;3.83;;;;;;;18.58;94.40;101272.69;8304004;28;20357;-63
2023/10/07 07:22:20;;;;;;;9.88;3.22;;;;;;;18.67;93.58;101277.09;8303163;28;20069;-62
2023/10/07 07:26:21;;;;;;;6.45;3.22;;;;;;;18.77;92.85;101266.81;8304130;28;20046;-64
2023/10/07 07:30:29;;;;;;;7.93;2.63;;;;;;;18.91;92.48;101257.84;8306453;28;20029;-64
2023/10/07 07:34:36;;;;;;;13.10;3.30;;;;;;;18.97;91.86;101262.63;8302025;28;20056;-63
2023/10/07 07:38:43;;;;;;;9.05;2.85;;;;;;;19.01;91.94;101253.03;8301188;28;20065;-63
2023/10/07 07:42:55;;;;;;;8.70;2.72;;;;;;;19.02;91.33;101246.50;8305697;28;20072;-63
2023/10/07 07:46:55;;;;;;;8.70;2.72;;;;;;;19.01;92.12;101264.00;8307109;28;20441;-64
2023/10/07 07:50:56;;;;;;;6.35;2.90;;;;;;;19.05;91.60;101273.56;8299343;28;20049;-64
2023/10/07 07:54:56;;;;;;;8.85;2.72;;;;;;;19.04;92.45;101269.13;8304973;28;20042;-61
2023/10/07 07:58:57;;;;;;;10.68;3.42;;;;;;;19.09;92.06;101277.66;8306498;28;20048;-61
2023/10/07 08:02:58;;;;;;;8.80;3.28;;;;;;;19.11;91.50;101274.72;8305164;28;20045;-61
2023/10/07 08:07:04;;;;;;;6.75;3.08;;;;;;;19.15;90.82;101265.97;8303842;28;20069;-61
2023/10/07 08:11:05;;;;;;;12.00;3.38;;;;;;;19.22;91.15;101261.47;8302204;28;20393;-61
2023/10/07 08:19:26;;;;;;;7.57;2.88;;;;;;;19.18;91.47;101273.84;8370595;27;20405;-62
2023/10/07 08:23:29;;;;;;;7.30;2.85;;;;;;;19.12;92.53;101273.72;8300258;28;20554;-62
2023/10/07 08:27:48;;;;;;;7.60;3.22;;;;;;;19.07;92.51;101267.91;8298564;28;20493;-62
2023/10/07 08:31:50;;;;;;;5.38;2.33;;;;;;;19.13;92.95;101273.53;8327866;28;20038;-62
2023/10/07 08:35:51;;;;;;;7.57;2.95;;;;;;;19.31;92.14;101270.59;8332559;28;20045;-61
2023/10/07 08:39:56;;;;;;;9.40;3.05;;;;;;;19.61;91.18;101288.09;8331702;28;20037;-61
2023/10/07 08:44:05;;;;;;;12.75;2.80;;;;;;;19.92;89.34;101283.41;8330467;28;20060;-61
2023/10/07 08:48:26;;;;;;;6.45;2.45;;;;;;;20.13;87.83;101281.72;8339821;28;20415;-62
2023/10/07 08:52:29;;;;;;;5.95;3.03;;;;;;;20.29;87.31;101297.25;8345150;28;20124;-62
2023/10/07 08:56:31;;;;;;;5.10;2.70;;;;;;;20.44;86.01;101287.16;8344504;28;20487;-61
2023/10/07 09:00:38;;;;;;;9.90;3.05;;;;;;;20.61;85.23;101286.81;8346067;28;20084;-61
2023/10/07 09:04:40;;;;;;;12.40;3.50;;;;;;;20.83;83.87;101288.63;8343432;28;20417;-64
2023/10/07 09:08:41;;;;;;;8.70;2.60;;;;;;;21.32;81.33;101291.72;8345005;28;20041;-64
2023/10/07 09:12:49;;;;;;;8.27;3.20;;;;;;;21.34;80.75;101281.38;8343619;28;20576;-64
2023/10/07 09:16:50;;;;;;;10.70;3.35;;;;;;;22.90;74.92;101283.00;8341044;28;20045;-61
2023/10/07 09:20:51;;;;;;;7.85;2.50;;;;;;;24.42;69.03;101283.41;8342920;28;20106;-61
2023/10/07 09:24:54;;;;;;;9.27;2.97;;;;;;;25.10;67.05;101279.38;8345504;28;20048;-61
2023/10/07 09:28:58;;;;;;;6.38;2.60;;;;;;;25.21;65.62;101287.84;8333732;28;20033;-62
2023/10/07 09:32:59;;;;;;;11.02;3.33;;;;;;;26.06;63.46;101281.97;8322486;28;20041;-61
2023/10/07 09:37:08;;;;;;;5.88;2.60;;;;;;;25.57;64.58;101282.66;8321177;28;20131;-63
2023/10/07 09:41:12;;;;;;;6.68;2.67;;;;;;;25.90;63.07;101283.34;8312134;28;20395;-63
2023/10/07 09:45:17;;;;;;;9.60;2.67;;;;;;;26.04;62.89;101284.16;8302399;28;20279;-63
2023/10/07 09:49:20;;;;;;;5.88;2.65;;;;;;;26.24;61.49;101271.84;8312979;28;20041;-61
2023/10/07 09:53:39;;;;;;;5.03;2.25;;;;;;;26.34;61.80;101274.97;8305168;28;20124;-61
2023/10/07 09:57:54;;;;;;;9.55;2.30;;;;;;;27.11;60.20;101276.44;8308078;28;20128;-63
2023/10/07 10:06:50;;;;;;;5.30;2.40;;;;;;;27.66;58.17;101275.38;8345573;27;20404;-62
2023/10/07 10:10:57;;;;;;;7.55;2.40;;;;;;;28.21;58.24;101269.44;8350331;28;20281;-62
2023/10/07 10:16:04;;;;;;;6.30;2.15;;;;;;;28.08;57.02;101269.66;8342581;28;20503;-62
2023/10/07 10:19:47;;;;;;;7.05;2.15;;;;;;;27.71;57.58;101268.03;8345047;28;20034;-61
2023/10/07 10:23:51;;;;;;;5.38;2.13;;;;;;;28.68;56.62;101262.06;8357642;28;20518;-61
2023/10/07 10:28:02;;;;;;;5.03;2.03;;;;;;;28.76;55.96;101258.94;8342960;28;20398;-61
2023/10/07 10:32:07;;;;;;;6.60;2.33;;;;;;;29.28;54.98;101248.75;8336585;28;20151;-61
2023/10/07 10:36:08;;;;;;;4.35;1.75;;;;;;;28.93;55.15;101259.91;8345909;28;20048;-61
2023/10/07 10:40:14;;;;;;;4.70;2.20;;;;;;;29.60;54.34;101259.22;8341074;28;20088;-60
2023/10/07 10:44:16;;;;;;;4.63;1.40;;;;;;;29.55;54.08;101245.16;8338054;28;20506;-61
2023/10/07 10:48:26;;;;;;;4.03;1.77;;;;;;;30.09;53.82;101247.41;8340482;28;20094;-61
2023/10/07 10:52:27;;;;;;;4.88;1.95;;;;;;;30.38;52.57;101240.69;8329482;28;20131;-60
2023/10/07 10:56:28;;;;;;;2.95;1.50;;;;;;;29.97;52.55;101249.41;8328764;28;20494;-61
2023/10/07 11:00:28;;;;;;;5.18;1.80;;;;;;;29.97;52.39;101238.25;8336800;28;20083;-60
2023/10/07 11:04:31;;;;;;;4.18;1.52;;;;;;;30.36;51.73;101237.31;8344822;28;20477;-61
2023/10/07 11:08:33;;;;;;;4.35;1.60;;;;;;;31.14;49.54;101255.91;8326204;28;20113;-61
2023/10/07 11:12:34;;;;;;;3.85;1.77;;;;;;;31.03;49.85;101251.25;8332200;28;20041;-61
2023/10/07 11:16:43;;;;;;;6.93;2.35;;;;;;;31.08;50.51;101251.34;8330098;28;20116;-63
2023/10/07 11:20:45;;;;;;;5.40;2.05;;;;;;;31.33;50.15;101243.34;8319708;28;20051;-63
2023/10/07 11:24:49;;;;;;;5.28;2.15;;;;;;;31.06;49.65;101231.19;8320537;28;20041;-61
2023/10/07 11:28:52;;;;;;;3.95;1.50;;;;;;;30.85;49.40;101238.44;8315280;28;20049;-61
2023/10/07 11:32:54;;;;;;;3.85;1.73;;;;;;;30.59;49.40;101235.47;8320390;28;20519;-61
2023/10/07 11:37:04;;;;;;;4.35;1.77;;;;;;;30.41;49.99;101234.59;8319642;28;20398;-61
2023/10/07 11:41:10;;;;;;;5.40;1.77;;;;;;;30.85;49.56;101226.41;8331339;28;20045;-61
2023/10/07 11:45:11;;;;;;;3.95;1.92;;;;;;;31.45;48.53;101233.75;8328735;28;20071;-60
2023/10/07 11:49:15;;;;;;;4.30;1.80;;;;;;;31.85;47.97;101225.00;8338178;28;20510;-60
2023/10/07 11:53:15;;;;;;;;;;;;;;;30.34;50.38;101217.19;8337713;28;20426;-60
2023/10/07 11:57:18;;;;;;;5.47;1.95;;;;;;;29.12;52.52;101211.34;8316646;28;19982;-61
2023/10/07 12:01:20;;;;;;;4.80;2.03;;;;;;;28.21;54.05;101215.78;8316873;28;20256;-61
2023/10/07 12:05:20;;;;;;;4.50;1.67;;;;;;;29.39;53.02;101212.50;8322210;28;20048;-62
2023/10/07 12:09:22;;;;;;;3.75;2.35;;;;;;;29.91;51.79;101210.50;8320021;28;20042;-60
2023/10/07 12:13:23;;;;;;;6.93;2.00;;;;;;;29.76;51.96;101201.88;8319646;28;20041;-61
2023/10/07 12:17:23;;;;;;;6.72;1.70;;;;;;;29.38;52.20;101205.25;8321672;28;20083;-60
2023/10/07 12:21:23;;;;;;;6.53;1.55;;;;;;;29.73;52.17;101203.19;8319067;28;20511;-61
2023/10/07 12:25:24;;;;;;;5.07;1.73;;;;;;;29.32;52.56;101200.66;8319714;28;20135;-61
2023/10/07 12:29:26;;;;;;;4.63;1.52;;;;;;;28.91;53.54;101198.06;8320295;28;20124;-60
2023/10/07 12:33:26;;;;;;;5.13;1.60;;;;;;;28.21;55.30;101190.75;8307454;28;20041;-60
2023/10/07 12:37:27;;;;;;;4.78;1.65;;;;;;;28.48;54.96;101192.84;8319525;28;20049;-61
2023/10/07 12:41:28;;;;;;;3.15;1.50;;;;;;;28.26;55.43;101182.50;8316464;28;20072;-61
2023/10/07 12:45:30;;;;;;;4.05;2.17;;;;;;;27.13;58.02;101189.03;8318545;28;20539;-61
2023/10/07 12:49:31;;;;;;;4.47;2.35;;;;;;;26.46;58.51;101173.31;8319751;28;20042;-60
2023/10/07 12:53:33;;;;;;;4.38;1.90;;;;;;;26.26;59.44;101178.16;8337273;28;20547;-61
2023/10/07 12:57:34;;;;;;;5.00;1.92;;;;;;;26.22;59.82;101182.47;8316208;28;20113;-61
2023/10/07 13:01:34;;;;;;;5.32;1.80;;;;;;;26.13;59.29;101175.50;8316923;28;20073;-61
2023/10/07 13:05:37;;;;;;;8.18;2.08;;;;;;;26.05;59.73;101175.81;8318375;28;20087;-61
2023/10/07 13:09:40;;;;;;;6.35;2.05;;;;;;;26.01;60.37;101182.03;8314852;28;20133;-61
2023/10/07 13:13:42;;;;;;;3.78;1.83;;;;;;;25.94;60.74;101179.25;8318286;28;20045;-61
2023/10/07 13:17:45;;;;;;;6.60;2.03;;;;;;;25.73;60.30;101196.25;8320192;28;20064;-61
2023/10/07 13:21:45;;;;;;;7.97;2.65;;;;;;;25.39;60.78;101193.88;8317586;28;20787;-61
2023/10/07 13:25:46;;;;;;;6.78;2.45;;;;;;;25.19;61.75;101190.34;8306220;28;20068;-61
2023/10/07 13:29:47;;;;;;;3.38;1.90;;;;;;;25.08;62.53;101193.78;8316765;28;20082;-61
2023/10/07 13:33:48;;;;;;;6.50;2.72;;;;;;;25.07;63.41;101192.09;8313182;28;20571;-62
2023/10/07 13:37:50;;;;;;;5.95;2.47;;;;;;;25.04;63.02;101195.28;8317910;28;20046;-61
2023/10/07 13:41:52;;;;;;;4.85;2.50;;;;;;;25.24;63.33;101187.75;8317808;28;20041;-61
2023/10/07 13:45:53;;;;;;;3.70;2.03;;;;;;;25.46;63.58;101186.38;8317985;28;20041;-61
2023/10/07 13:49:54;;;;;;;4.25;1.88;;;;;;;25.57;63.08;101177.38;8320018;28;20042;-61
2023/10/07 13:55:17;;;;;;;6.60;2.70;;;;;;;25.56;62.27;101170.16;8319988;28;20095;-61
2023/10/07 13:58:15;;;;;;;4.93;2.10;;;;;;;25.73;61.54;101164.91;8318756;28;20455;-61
2023/10/07 14:02:19;;;;;;;4.55;2.35;;;;;;;25.76;61.29;101159.78;8316338;28;20065;-61
2023/10/07 14:06:20;;;;;;;5.47;2.13;;;;;;;25.83;60.06;101152.25;8317158;28;20068;-63
2023/10/07 14:10:23;;;;;;;5.22;2.25;;;;;;;25.82;59.95;101167.19;8313351;28;20044;-63
2023/10/07 14:14:25;;;;;;;5.22;2.60;;;;;;;25.76;59.19;101165.31;8296304;28;20132;-64
2023/10/07 14:18:28;;;;;;;7.30;2.60;;;;;;;25.89;60.08;101159.69;8311923;28;20051;-59
2023/10/07 14:22:29;;;;;;;5.85;2.58;;;;;;;25.85;59.76;101152.03;8316932;28;20106;-60
2023/10/07 14:26:32;;;;;;;6.25;3.03;;;;;;;25.69;60.23;101152.59;8318134;28;20040;-61
2023/10/07 14:30:33;;;;;;;6.47;2.42;;;;;;;25.56;60.43;101142.47;8315434;28;20527;-61
2023/10/07 14:34:33;;;;;;;5.47;2.75;;;;;;;25.51;59.88;101149.72;8318539;28;20418;-61
2023/10/07 14:38:34;;;;;;;7.45;3.25;;;;;;;25.53;60.00;101136.50;8314312;28;20048;-61
2023/10/07 14:42:34;;;;;;;6.88;2.58;;;;;;;25.51;60.06;101124.78;8314208;28;20077;-61
2023/10/07 14:46:42;;;;;;;8.43;2.78;;;;;;;25.69;60.42;101114.66;8314717;28;20046;-61
2023/10/07 14:50:43;;;;;;;4.30;2.13;;;;;;;25.61;61.15;101112.16;8317037;28;20046;-62
2023/10/07 14:54:44;;;;;;;7.38;2.53;;;;;;;25.64;60.33;101099.78;8323913;28;20045;-61
2023/10/07 14:58:47;;;;;;;4.63;2.38;;;;;;;25.50;60.98;101101.81;8322970;28;22877;-61
2023/10/07 15:02:48;;;;;;;4.28;2.65;;;;;;;25.43;61.38;101095.44;8322276;28;20065;-62
2023/10/07 15:06:48;;;;;;;6.43;2.58;;;;;;;25.32;60.07;101096.16;8327899;28;20041;-62
2023/10/07 15:10:49;;;;;;;9.13;3.47;;;;;;;25.43;61.09;101098.22;8329396;28;20055;-61
2023/10/07 15:14:50;;;;;;;4.18;2.10;;;;;;;25.48;61.07;101101.16;8322718;28;20792;-61
2023/10/07 15:18:52;;;;;;;8.30;2.75;;;;;;;25.32;61.72;101096.16;8322904;28;20044;-62
2023/10/07 15:22:52;;;;;;;5.80;2.20;;;;;;;25.24;60.59;101092.75;8311821;28;20495;-61
2023/10/07 15:26:53;;;;;;;5.07;2.40;;;;;;;25.12;60.64;101095.38;8313348;28;20478;-60
2023/10/07 15:30:53;;;;;;;6.65;2.53;;;;;;;25.01;60.86;101093.34;8319736;28;20120;-61
2023/10/07 15:34:56;;;;;;;5.55;2.40;;;;;;;24.97;61.08;101092.91;8320715;28;20092;-60
2023/10/07 15:38:57;;;;;;;6.93;2.38;;;;;;;24.83;61.76;101095.97;8323088;28;20143;-60
2023/10/07 15:42:57;;;;;;;4.45;2.25;;;;;;;24.78;61.97;101109.59;8334513;28;20060;-60
2023/10/07 15:46:58;;;;;;;5.78;2.35;;;;;;;24.72;62.53;101104.94;8338870;28;20048;-60
2023/10/07 15:51:00;;;;;;;4.90;2.85;;;;;;;24.67;62.44;101094.53;8338151;28;20162;-61
2023/10/07 15:55:06;;;;;;;5.07;2.08;;;;;;;24.60;62.57;101095.56;8336486;28;20500;-60
2023/10/07 15:59:08;;;;;;;4.68;2.45;;;;;;;24.49;62.47;101105.38;8333128;28;20036;-62
2023/10/07 16:03:11;;;;;;;5.68;2.53;;;;;;;24.47;63.05;101112.22;8331553;28;20030;-61
2023/10/07 16:07:13;;;;;;;7.80;2.38;;;;;;;24.43;63.30;101122.00;8336204;28;20455;-63
2023/10/07 16:11:17;;;;;;;7.90;2.78;;;;;;;24.31;63.29;101126.50;8334865;28;20090;-63
2023/10/07 16:15:18;;;;;;;7.55;2.92;;;;;;;24.13;64.35;101153.94;8317026;28;20041;-63
2023/10/07 16:19:19;;;;;;;10.18;3.35;;;;;;;24.05;64.74;101156.91;8332485;28;20337;-61
2023/10/07 16:23:21;;;;;;;6.07;2.38;;;;;;;24.01;64.74;101167.53;8335272;28;20051;-60
2023/10/07 16:27:22;;;;;;;8.07;2.22;;;;;;;23.97;65.46;101165.41;8321791;28;20054;-62
2023/10/07 16:31:23;;;;;;;4.20;2.10;;;;;;;23.92;65.08;101162.41;8303931;28;20041;-63
2023/10/07 16:35:24;;;;;;;7.30;2.60;;;;;;;23.84;65.51;101149.63;8333554;28;20054;-62
2023/10/07 16:39:25;;;;;;;7.65;2.60;;;;;;;23.99;64.93;101152.22;8310627;28;20208;-60
2023/10/07 16:43:25;;;;;;;6.78;3.05;;;;;;;23.91;65.31;101150.50;8301154;28;20037;-61
2023/10/07 16:47:27;;;;;;;7.53;2.53;;;;;;;23.84;65.42;101160.69;8305219;28;20057;-63
2023/10/07 16:51:28;;;;;;;9.23;2.25;;;;;;;23.67;66.44;101153.03;8300944;28;20111;-62
2023/10/07 16:55:29;;;;;;;4.75;2.35;;;;;;;23.54;66.84;101147.50;8308102;28;20050;-63
2023/10/07 16:59:29;;;;;;;5.30;2.85;;;;;;;23.49;66.72;101144.50;8308024;28;20075;-61
2023/10/07 17:03:30;;;;;;;6.43;2.75;;;;;;;23.39;67.13;101141.28;8333741;28;20053;-61
2023/10/07 17:07:31;;;;;;;7.13;2.47;;;;;;;23.39;66.92;101139.34;8334556;28;20045;-61
2023/10/07 17:11:31;;;;;;;5.13;2.88;;;;;;;23.36;66.92;101133.44;8328118;28;20053;-61
2023/10/07 17:15:37;;;;;;;6.13;2.38;;;;;;;23.18;67.96;101132.06;8302387;28;20041;-61
2023/10/07 17:19:38;;;;;;;5.88;2.20;;;;;;;23.14;67.92;101135.44;8318568;28;20358;-61
2023/10/07 17:23:38;;;;;;;4.90;2.30;;;;;;;23.07;67.94;101129.06;8319305;28;20037;-61
2023/10/07 17:27:39;;;;;;;6.22;2.30;;;;;;;23.09;67.71;101129.72;8317284;28;20041;-61
2023/10/07 17:31:39;;;;;;;7.13;2.92;;;;;;;23.06;67.88;101136.47;8319425;28;20267;-61
2023/10/07 17:35:40;;;;;;;8.10;2.65;;;;;;;23.03;68.13;101127.78;8318061;28;20084;-62
2023/10/07 17:39:42;;;;;;;6.72;2.63;;;;;;;23.06;68.06;101130.13;8317696;28;20090;-62
2023/10/07 17:43:42;;;;;;;6.65;2.97;;;;;;;23.09;68.24;101138.81;8314890;28;20049;-61
2023/10/07 17:47:44;;;;;;;6.35;2.40;;;;;;;22.95;68.98;101131.56;8319353;28;20115;-63
2023/10/07 17:51:44;;;;;;;5.32;2.50;;;;;;;22.94;68.67;101132.59;8301819;28;20052;-63
2023/10/07 17:55:45;;;;;;;5.03;2.55;;;;;;;22.97;69.09;101145.97;8321548;28;20037;-63
2023/10/07 17:59:45;;;;;;;6.28;2.08;;;;;;;23.00;68.99;101142.81;8317238;28;20072;-64
2023/10/07 18:03:46;;;;;;;4.18;2.10;;;;;;;22.90;69.51;101142.34;8316460;28;20045;-65
2023/10/07 18:07:48;;;;;;;8.25;2.58;;;;;;;23.03;68.93;101139.63;8316681;28;20204;-62
2023/10/07 18:11:49;;;;;;;8.15;3.05;;;;;;;23.02;69.11;101143.47;8314534;28;20065;-62
2023/10/07 18:15:49;;;;;;;6.82;2.25;;;;;;;23.02;69.22;101154.50;8315106;28;20192;-62
2023/10/07 18:19:50;;;;;;;5.68;2.53;;;;;;;23.07;69.11;101174.06;8314478;28;20499;-64
2023/10/07 18:23:50;;;;;;;5.97;2.28;;;;;;;23.05;69.48;101181.69;8316024;28;20512;-63
2023/10/07 18:27:51;;;;;;;5.82;2.28;;;;;;;23.00;69.74;101184.19;8325415;28;20048;-64
2023/10/07 18:31:54;;;;;;;6.40;2.67;;;;;;;22.97;69.89;101162.53;8320907;28;20040;-64
2023/10/07 18:35:56;;;;;;;8.13;2.78;;;;;;;22.91;70.21;101162.50;8324841;28;20076;-64
2023/10/07 18:39:56;;;;;;;4.32;2.55;;;;;;;22.78;70.73;101168.81;8320966;28;20041;-63
2023/10/07 18:43:57;;;;;;;5.90;2.53;;;;;;;22.73;71.11;101170.47;8327928;28;20545;-63
2023/10/07 18:47:57;;;;;;;5.78;2.67;;;;;;;22.78;71.08;101168.81;8323434;28;20057;-64
2023/10/07 18:51:58;;;;;;;6.55;2.55;;;;;;;22.69;71.27;101164.50;8320202;28;20699;-64
2023/10/07 18:56:01;;;;;;;5.78;2.65;;;;;;;22.60;71.78;101157.44;8323920;28;20117;-64
2023/10/07 19:00:02;;;;;;;6.50;2.58;;;;;;;22.68;70.90;101162.81;8318910;28;20504;-63
2023/10/07 19:04:02;;;;;;;5.45;2.70;;;;;;;22.58;71.28;101158.72;8324369;28;20469;-62
2023/10/07 19:08:03;;;;;;;5.72;2.70;;;;;;;22.60;71.58;101160.22;8320541;28;20350;-62
2023/10/07 19:12:04;;;;;;;10.55;2.78;;;;;;;22.76;71.10;101165.41;8322399;28;20488;-65
2023/10/07 19:16:09;;;;;;;8.23;2.65;;;;;;;22.62;71.87;101171.91;8321528;28;20286;-64